• Join FlightAware (Why Join?)
  • Login
  • US Flag 
08:28PM EDT


 

Airport Tracker/Info


-or-


 

Live Flight TrackerFlight Track Log ✈ EJA396 ✈ 04-Oct-2013 ✈ KCOU - KAPF

Flight Track Log - Related Links

Times and Time Zones

All times are in EDT time to prevent confusion due to time zone crossing. See the EJA396 flight status page for this flight to view local times or setup timezone preferences in your user account.

Time Position Orientation Groundspeed Altitude Reporting Facility
EDT Latitude Longitude Course Direction KTS MPH feet Rate Location/Type
01:02PM 38.7361 -92.1789 148° Southeast 227 261 6,400  Level Kansas City Center
01:03PM 38.6708 -92.1256 147° Southeast 265 305 9,500 2,940 Climbing Kansas City Center
01:04PM 38.5989 -92.0658 147° Southeast 296 341 12,500 3,000 Climbing Kansas City Center
01:05PM 38.5197 -92.0019 148° Southeast 323 372 15,800 2,940 Climbing Kansas City Center
01:06PM 38.4378 -91.9353 147° Southeast 340 391 18,600 2,520 Climbing Kansas City Center
01:07PM 38.3536 -91.8672 148° Southeast 350 403 21,100 2,160 Climbing Kansas City Center
01:08PM 38.2644 -91.7953 148° Southeast 365 420 23,100 2,040 Climbing Kansas City Center
01:09PM 38.1558 -91.6950 144° Southeast 395 455 25,300 1,860 Climbing Kansas City Center
01:10PM 38.0683 -91.5922 137° Southeast 418 481 27,000 1,560 Climbing Kansas City Center
01:11PM 37.9772 -91.4886 138° Southeast 429 494 28,700 1,560 Climbing Kansas City Center
01:12PM 37.8858 -91.3836 138° Southeast 437 503 30,300 1,500 Climbing Kansas City Center
01:13PM 37.7925 -91.2772 138° Southeast 446 513 31,800 1,680 Climbing Kansas City Center
01:14PM 37.6978 -91.1711 138° Southeast 450 518 33,800 1,980 Climbing Kansas City Center
01:15PM 37.6075 -91.0672 138° Southeast 443 510 35,900 1,860 Climbing Kansas City Center
01:16PM 37.5025 -90.9483 138° Southeast 426 490 37,700 1,320 Climbing Kansas City Center
01:17PM 37.4119 -90.8483 139° Southeast 427 491 38,700 900 Climbing Kansas City Center
01:18PM 37.3339 -90.7561 137° Southeast 428 493 39,600 900 Climbing Kansas City Center
01:19PM 37.2425 -90.6578 139° Southeast 431 496 40,600 1,020 Climbing Kansas City Center
01:20PM 37.1364 -90.5408 139° Southeast 425 489 41,800 840 Climbing Kansas City Center
01:21PM 37.0506 -90.4422 137° Southeast 420 483 42,500 540 Climbing Kansas City Center
01:22PM 36.9619 -90.3464 139° Southeast 420 483 43,000 240 Climbing Kansas City Center
01:23PM 36.8711 -90.2478 139° Southeast 429 494 43,000  Level Kansas City Center
01:24PM 36.7797 -90.1450 138° Southeast 438 504 43,000  Level Kansas City Center
01:25PM 36.6872 -90.0433 139° Southeast 442 509 43,000  Level Kansas City Center
01:26PM 36.5750 -89.9214 139° Southeast 446 513 43,000  Level Kansas City Center
01:27PM 36.4811 -89.8178 138° Southeast 450 518 43,000  Level Kansas City Center
01:28PM 36.3969 -89.7272 139° Southeast 451 519 43,000  Level Kansas City Center
01:29PM 36.2828 -89.6053 139° Southeast 452 520 43,000  Level Kansas City Center
01:31PM 36.1700 -89.4906 141° Southeast 458 527 43,000  Level Memphis Center
01:32PM 36.0775 -89.3864 138° Southeast 458 527 43,000  Level Memphis Center
01:33PM 35.9914 -89.2950 139° Southeast 458 527 43,000  Level Memphis Center
01:34PM 35.8986 -89.1911 138° Southeast 458 527 43,000  Level Memphis Center
01:35PM 35.8017 -89.0875 139° Southeast 464 534 43,000  Level Memphis Center
01:36PM 35.7047 -88.9842 139° Southeast 464 534 43,000  Level Memphis Center
01:37PM 35.6056 -88.8761 138° Southeast 454 522 43,000  Level Memphis Center
01:38PM 35.5147 -88.7833 140° Southeast 459 528 43,000  Level Memphis Center
01:39PM 35.4194 -88.6806 139° Southeast 464 534 43,000  Level Memphis Center
01:40PM 35.3156 -88.5683 139° Southeast 459 528 43,000  Level Memphis Center
01:41PM 35.2225 -88.4761 141° Southeast 459 528 43,000  Level Memphis Center
01:42PM 35.1250 -88.3767 140° Southeast 454 522 43,000  Level Memphis Center
01:43PM 35.0317 -88.2800 140° Southeast 454 522 43,000  Level Memphis Center
01:44PM 34.9339 -88.1811 140° Southeast 454 522 43,000  Level Memphis Center
01:45PM 34.8467 -88.0847 138° Southeast 462 532 43,000  Level Memphis Center
01:46PM 34.7489 -87.9864 140° Southeast 457 526 43,000  Level Memphis Center
01:47PM 34.6444 -87.8781 140° Southeast 457 526 43,000  Level Memphis Center
01:48PM 34.5486 -87.7825 141° Southeast 457 526 43,000  Level Memphis Center
01:49PM 34.4486 -87.6825 140° Southeast 452 520 43,000  Level Memphis Center
01:51PM 34.1658 -87.3978 140° Southeast 471 542 43,000  Level Atlanta Center
01:52PM 34.0703 -87.3014 140° Southeast 443 510 43,000  Level Atlanta Center
01:53PM 33.9750 -87.2025 139° Southeast 476 548 43,000  Level Atlanta Center
01:54PM 33.8772 -87.1064 141° Southeast 471 542 43,000  Level Atlanta Center
01:55PM 33.7794 -87.0078 140° Southeast 465 535 43,000  Level Atlanta Center
01:56PM 33.6814 -86.9122 141° Southeast 465 535 43,000  Level Atlanta Center
01:57PM 33.5811 -86.8239 144° Southeast 459 528 43,000  Level Atlanta Center
01:58PM 33.4786 -86.7386 145° Southeast 454 522 43,000  Level Atlanta Center
01:59PM 33.3742 -86.6506 145° Southeast 454 522 43,000  Level Atlanta Center
02:00PM 33.2903 -86.5736 143° Southeast 454 522 43,000  Level Atlanta Center
02:01PM 33.1875 -86.4886 145° Southeast 447 514 43,000  Level Atlanta Center
02:02PM 33.0847 -86.4064 146° Southeast 442 509 43,000  Level Atlanta Center
02:03PM 32.9861 -86.3222 144° Southeast 442 509 43,000  Level Atlanta Center
02:04PM 32.8833 -86.2378 145° Southeast 442 509 43,000  Level Atlanta Center
02:05PM 32.7825 -86.1561 146° Southeast 442 509 43,000  Level Atlanta Center
02:06PM 32.6794 -86.0722 146° Southeast 442 509 43,000  Level Atlanta Center
02:07PM 32.5706 -85.9811 145° Southeast 442 509 43,000  Level Atlanta Center
02:08PM 32.4653 -85.9025 148° Southeast 442 509 43,000  Level Atlanta Center
02:09PM 32.3642 -85.8192 145° Southeast 447 514 43,000  Level Atlanta Center
02:10PM 32.2653 -85.7289 142° Southeast 447 514 43,000  Level Atlanta Center
02:11PM 32.1619 -85.6483 147° Southeast 452 520 43,000  Level Atlanta Center
02:12PM 32.0628 -85.5681 146° Southeast 447 514 43,000  Level Atlanta Center
02:15PM 31.8372 -85.3894 146° Southeast 455 524 43,000  Level Jacksonville Center
02:16PM 31.7406 -85.3111 145° Southeast 441 507 43,000  Level Jacksonville Center
02:17PM 31.6378 -85.2303 146° Southeast 441 507 43,000  Level Jacksonville Center
02:18PM 31.5369 -85.1497 146° Southeast 436 502 43,000  Level Jacksonville Center
02:19PM 31.4381 -85.0719 146° Southeast 436 502 43,000  Level Jacksonville Center
02:20PM 31.3283 -85.0061 153° Southeast 436 502 43,000  Level Jacksonville Center
02:21PM 31.2167 -84.9478 156° South 436 502 43,000  Level Jacksonville Center
02:22PM 31.1050 -84.8822 153° Southeast 441 507 43,000  Level Jacksonville Center
02:23PM 30.9953 -84.8192 154° Southeast 441 507 43,000  Level Jacksonville Center
02:24PM 30.8667 -84.7514 156° South 448 516 43,000  Level Jacksonville Center
02:25PM 30.7675 -84.6961 154° Southeast 448 516 43,000  Level Jacksonville Center
02:26PM 30.6533 -84.6336 155° Southeast 448 516 43,000  Level Jacksonville Center
02:27PM 30.5292 -84.5639 154° Southeast 453 521 43,000  Level Jacksonville Center
02:28PM 30.4131 -84.5017 155° Southeast 453 521 43,000  Level Jacksonville Center
02:29PM 30.2967 -84.4394 155° Southeast 458 527 43,000  Level Jacksonville Center
02:30PM 30.1786 -84.3728 154° Southeast 458 527 43,000  Level Jacksonville Center
02:31PM 30.0644 -84.3111 155° Southeast 458 527 43,000  Level Jacksonville Center
02:32PM 29.9483 -84.2494 155° Southeast 458 527 43,000  Level Jacksonville Center
02:33PM 29.8319 -84.1856 155° Southeast 458 527 43,000  Level Jacksonville Center
02:34PM 29.7156 -84.1264 156° South 458 527 43,000  Level Jacksonville Center
02:35PM 29.5972 -84.0628 155° Southeast 458 527 43,000  Level Jacksonville Center
02:36PM 29.4831 -84.0019 155° Southeast 458 527 43,000  Level Jacksonville Center
02:37PM 29.3750 -83.9436 155° Southeast 466 536 43,000  Level Jacksonville Center
02:38PM 29.2586 -83.8828 155° Southeast 466 536 43,000  Level Jacksonville Center
02:39PM 29.1400 -83.8197 155° Southeast 461 531 43,000  Level Jacksonville Center
02:40PM 29.0214 -83.7544 154° Southeast 461 531 43,000  Level Jacksonville Center
02:41PM 28.9050 -83.6942 156° South 461 531 43,000 -360 Level Jacksonville Center
02:43PM 28.5958 -83.5292 155° Southeast 466 536 41,800 -1,140 Descending Miami Center
02:44PM 28.4717 -83.4650 156° South 479 551 39,200 -2,520 Descending Miami Center
02:45PM 28.3536 -83.4039 156° South 479 551 36,800 -2,100 Descending Miami Center
02:46PM 28.2447 -83.3692 164° South 464 534 35,000 -1,680 Descending Miami Center
02:47PM 28.1194 -83.3714 181° South 450 518 33,500 -1,980 Descending Miami Center
02:48PM 27.9925 -83.3686 179° South 450 518 31,100 -2,460 Descending Miami Center
02:49PM 27.8633 -83.3661 179° South 462 532 28,600 -2,520 Descending Miami Center
02:50PM 27.7325 -83.3539 175° South 468 539 26,100 -2,160 Descending Miami Center
02:51PM 27.6336 -83.2756 145° Southeast 431 496 24,300 -1,500 Descending Miami Center
02:52PM 27.5375 -83.1908 142° Southeast 436 502 23,100 -1,200 Descending Miami Center
02:53PM 27.4472 -83.1061 140° Southeast 431 496 21,900 -1,200 Descending Miami Center
02:54PM 27.3567 -83.0267 142° Southeast 426 490 20,700 -1,200 Descending Miami Center
02:55PM 27.2706 -82.9450 140° Southeast 421 484 19,500 -1,200 Descending Miami Center
02:56PM 27.1822 -82.8633 141° Southeast 416 479 18,300 -1,200 Descending Miami Center
02:57PM 27.0975 -82.7889 142° Southeast 406 467 17,200 -1,200 Descending Miami Center
02:58PM 27.0150 -82.7147 141° Southeast 395 455 16,000 -1,320 Descending Miami Center
02:59PM 26.9344 -82.6433 142° Southeast 382 440 14,600 -1,500 Descending Miami Center
03:00PM 26.8539 -82.5719 142° Southeast 375 432 13,100 -1,560 Descending Miami Center
03:01PM 26.7753 -82.4958 139° Southeast 375 432 11,500 -1,620 Descending Miami Center
03:02PM 26.7006 -82.4319 143° Southeast 361 415 9,900 -1,800 Descending Miami Center
03:03PM 26.6278 -82.3681 142° Southeast 315 362 8,000 -1,500 Descending Miami Center
03:04PM 26.5589 -82.3183 147° Southeast 299 344 7,000 -540 Descending Miami Center
03:05PM 26.4897 -82.2664 146° Southeast 293 337 7,000  Level Miami Center
03:06PM 26.4228 -82.2169 147° Southeast 293 337 7,000 -720 Level Miami Center
03:07PM 26.3664 -82.1567 136° Southeast 293 337 5,600 -1,020 Descending Miami Center
03:08PM 26.3122 -82.0986 136° Southeast 277 319 5,000 -1,020 Descending Miami Center
03:09PM 26.2600 -82.0383 134° Southeast 271 312 3,600 -1,440 Descending Miami Center
03:11PM 26.1071 -81.9869 156° South  Level FlightAware Approximate
03:18PM 26.1524 -81.7756 66° East  Level Estimated
03:19PM 26.1524 -81.7756 66° East  Level Estimated
03:20PM 26.1524 -81.7756 66° East  Level Estimated
03:21PM 26.1524 -81.7756 66° East  Level Estimated
03:22PM 26.1524 -81.7756 66° East  Level Estimated
03:23PM 26.1524 -81.7756 66° East  Level Estimated
03:24PM 26.1524 -81.7756 66° East  Level Estimated